Wetterdaten: Mittwoch, 05.09.2012
Datum Zeit Temperatur Luftfeuchte Luftdruck Regen Wind Richtung Richtung Sonnenschein Taupunkt Windchill
05.09.2012 00:04 13,3 C 66 % 1020,7 hPa 0,0 l/m 0,0 km/h (0 Bft) O-SO 105 0 min 7,1 C 13,3 C
05.09.2012 00:09 13,3 C 66 % 1020,7 hPa 0,0 l/m 0,0 km/h (0 Bft) O-SO 105 0 min 7,1 C 13,3 C
05.09.2012 00:14 13,1 C 66 % 1020,7 hPa 0,0 l/m 0,0 km/h (0 Bft) O-SO 105 0 min 6,9 C 13,1 C
05.09.2012 00:19 13,1 C 66 % 1020,7 hPa 0,0 l/m 0,0 km/h (0 Bft) O-SO 105 0 min 6,9 C 13,1 C
05.09.2012 00:23 13,0 C 67 % 1020,7 hPa 0,0 l/m 0,0 km/h (0 Bft) O-SO 105 0 min 7,0 C 13,0 C
05.09.2012 00:28 12,9 C 68 % 1020,7 hPa 0,0 l/m 0,0 km/h (0 Bft) O-SO 105 0 min 7,1 C 12,9 C
05.09.2012 00:33 12,9 C 68 % 1020,7 hPa 0,0 l/m 0,0 km/h (0 Bft) O-SO 105 0 min 7,1 C 12,9 C
05.09.2012 00:38 12,8 C 68 % 1020,7 hPa 0,0 l/m 0,0 km/h (0 Bft) O-SO 105 0 min 7,0 C 12,8 C
05.09.2012 00:43 12,7 C 68 % 1020,7 hPa 0,0 l/m 0,0 km/h (0 Bft) O-SO 105 0 min 6,9 C 12,7 C
05.09.2012 00:48 12,6 C 68 % 1020,7 hPa 0,0 l/m 0,0 km/h (0 Bft) O-SO 105 0 min 6,9 C 12,6 C
05.09.2012 00:53 12,6 C 68 % 1020,7 hPa 0,0 l/m 0,0 km/h (0 Bft) O-SO 105 0 min 6,9 C 12,6 C
05.09.2012 00:58 12,6 C 68 % 1020,7 hPa 0,0 l/m 0,0 km/h (0 Bft) O-SO 105 0 min 6,9 C 12,6 C
05.09.2012 01:03 12,5 C 68 % 1020,7 hPa 0,0 l/m 0,0 km/h (0 Bft) O-SO 105 0 min 6,8 C 12,5 C
05.09.2012 01:08 12,5 C 68 % 1020,7 hPa 0,0 l/m 0,0 km/h (0 Bft) O-SO 105 0 min 6,8 C 12,5 C
05.09.2012 01:14 12,4 C 68 % 1020,7 hPa 0,0 l/m 0,0 km/h (0 Bft) O-SO 105 0 min 6,7 C 12,4 C
05.09.2012 01:19 12,4 C 68 % 1020,7 hPa 0,0 l/m 0,0 km/h (0 Bft) O-SO 105 0 min 6,7 C 12,4 C
05.09.2012 01:24 12,3 C 68 % 1020,7 hPa 0,0 l/m 0,0 km/h (0 Bft) O-SO 105 0 min 6,6 C 12,3 C
05.09.2012 01:29 12,3 C 69 % 1020,7 hPa 0,0 l/m 0,0 km/h (0 Bft) O-SO 105 0 min 6,8 C 12,3 C
05.09.2012 01:34 12,3 C 69 % 1020,7 hPa 0,0 l/m 0,0 km/h (0 Bft) O-SO 105 0 min 6,8 C 12,3 C
05.09.2012 01:39 12,4 C 70 % 1020,7 hPa 0,0 l/m 0,0 km/h (0 Bft) O-SO 115 0 min 7,1 C 12,4 C
05.09.2012 01:44 12,4 C 70 % 1020,7 hPa 0,0 l/m 0,0 km/h (0 Bft) O-SO 115 0 min 7,1 C 12,4 C
05.09.2012 01:49 12,4 C 70 % 1020,7 hPa 0,0 l/m 0,0 km/h (0 Bft) O-SO 115 0 min 7,1 C 12,4 C
05.09.2012 01:54 12,3 C 70 % 1020,7 hPa 0,0 l/m 0,0 km/h (0 Bft) O-SO 115 0 min 7,0 C 12,3 C
05.09.2012 01:59 12,3 C 70 % 1020,7 hPa 0,0 l/m 0,0 km/h (0 Bft) O-SO 115 0 min 7,0 C 12,3 C
05.09.2012 02:04 12,2 C 70 % 1020,7 hPa 0,0 l/m 0,0 km/h (0 Bft) O-SO 110 0 min 6,9 C 12,2 C
05.09.2012 02:09 12,1 C 70 % 1020,7 hPa 0,0 l/m 0,0 km/h (0 Bft) O-SO 110 0 min 6,8 C 12,1 C
05.09.2012 02:14 12,0 C 70 % 1020,7 hPa 0,0 l/m 0,0 km/h (0 Bft) O-SO 110 0 min 6,7 C 12,0 C
05.09.2012 02:19 12,0 C 70 % 1020,7 hPa 0,0 l/m 0,0 km/h (0 Bft) O-SO 110 0 min 6,7 C 12,0 C
05.09.2012 02:24 12,0 C 71 % 1020,7 hPa 0,0 l/m 0,0 km/h (0 Bft) O-SO 110 0 min 6,9 C 12,0 C
05.09.2012 02:29 12,0 C 71 % 1020,7 hPa 0,0 l/m 0,0 km/h (0 Bft) O-SO 110 0 min 6,9 C 12,0 C
05.09.2012 02:34 11,9 C 71 % 1020,7 hPa 0,0 l/m 0,0 km/h (0 Bft) O-SO 110 0 min 6,8 C 11,9 C
05.09.2012 02:39 11,9 C 72 % 1020,7 hPa 0,0 l/m 0,0 km/h (0 Bft) O-SO 120 0 min 7,0 C 11,9 C
05.09.2012 02:44 12,0 C 71 % 1020,7 hPa 0,0 l/m 0,0 km/h (0 Bft) O-SO 110 0 min 6,9 C 12,0 C
05.09.2012 02:49 12,0 C 71 % 1020,7 hPa 0,0 l/m 0,0 km/h (0 Bft) O-SO 110 0 min 6,9 C 12,0 C
05.09.2012 02:54 11,9 C 72 % 1020,7 hPa 0,0 l/m 0,0 km/h (0 Bft) O-SO 110 0 min 7,0 C 11,9 C
05.09.2012 02:59 11,9 C 72 % 1020,7 hPa 0,0 l/m 0,0 km/h (0 Bft) O-SO 115 0 min 7,0 C 11,9 C
05.09.2012 03:04 11,9 C 72 % 1020,7 hPa 0,0 l/m 0,0 km/h (0 Bft) O-SO 115 0 min 7,0 C 11,9 C
05.09.2012 03:09 12,0 C 72 % 1020,7 hPa 0,0 l/m 0,0 km/h (0 Bft) O-SO 115 0 min 7,1 C 12,0 C
05.09.2012 03:14 12,0 C 73 % 1020,7 hPa 0,0 l/m 0,0 km/h (0 Bft) O-SO 110 0 min 7,3 C 12,0 C
05.09.2012 03:19 12,0 C 74 % 1020,7 hPa 0,0 l/m 0,0 km/h (0 Bft) O-SO 110 0 min 7,5 C 12,0 C
05.09.2012 03:24 12,0 C 74 % 1019,7 hPa 0,0 l/m 0,0 km/h (0 Bft) O-SO 115 0 min 7,5 C 12,0 C
05.09.2012 03:29 12,0 C 74 % 1019,7 hPa 0,0 l/m 0,0 km/h (0 Bft) O-SO 110 0 min 7,5 C 12,0 C
05.09.2012 03:34 12,0 C 75 % 1019,7 hPa 0,0 l/m 0,0 km/h (0 Bft) S-SO 160 0 min 7,7 C 12,0 C
05.09.2012 03:39 12,0 C 75 % 1019,7 hPa 0,0 l/m 0,0 km/h (0 Bft) SW 230 0 min 7,7 C 12,0 C
05.09.2012 03:44 12,0 C 76 % 1019,7 hPa 0,0 l/m 2,8 km/h (1 Bft) W-SW 255 0 min 7,9 C 12,0 C
05.09.2012 03:49 12,0 C 76 % 1019,7 hPa 0,0 l/m 0,0 km/h (0 Bft) W 270 0 min 7,9 C 12,0 C
05.09.2012 03:54 12,0 C 76 % 1019,7 hPa 0,0 l/m 0,0 km/h (0 Bft) W 275 0 min 7,9 C 12,0 C
05.09.2012 03:59 12,0 C 76 % 1019,7 hPa 0,0 l/m 0,0 km/h (0 Bft) W 270 0 min 7,9 C 12,0 C
05.09.2012 04:04 11,8 C 76 % 1019,7 hPa 0,0 l/m 0,0 km/h (0 Bft) W 270 0 min 7,7 C 11,8 C
05.09.2012 04:09 11,8 C 77 % 1019,7 hPa 0,0 l/m 0,0 km/h (0 Bft) W 270 0 min 7,9 C 11,8 C
05.09.2012 04:14 11,7 C 77 % 1019,7 hPa 0,0 l/m 0,6 km/h (0 Bft) W-NW 290 0 min 7,8 C 11,7 C
05.09.2012 04:19 11,6 C 77 % 1019,7 hPa 0,0 l/m 0,0 km/h (0 Bft) W 275 0 min 7,7 C 11,6 C
05.09.2012 04:24 11,6 C 77 % 1019,7 hPa 0,0 l/m 0,0 km/h (0 Bft) W 270 0 min 7,7 C 11,6 C
05.09.2012 04:29 11,6 C 76 % 1019,7 hPa 0,0 l/m 0,0 km/h (0 Bft) W 270 0 min 7,5 C 11,6 C
05.09.2012 04:34 11,5 C 76 % 1019,7 hPa 0,0 l/m 0,0 km/h (0 Bft) W 270 0 min 7,4 C 11,5 C
05.09.2012 04:39 11,6 C 76 % 1019,7 hPa 0,0 l/m 0,0 km/h (0 Bft) W-NW 285 0 min 7,5 C 11,6 C
05.09.2012 04:44 11,6 C 76 % 1019,7 hPa 0,0 l/m 0,0 km/h (0 Bft) W-NW 300 0 min 7,5 C 11,6 C
05.09.2012 04:49 11,6 C 76 % 1019,7 hPa 0,0 l/m 0,0 km/h (0 Bft) W-NW 300 0 min 7,5 C 11,6 C
05.09.2012 04:54 11,6 C 76 % 1019,7 hPa 0,0 l/m 0,0 km/h (0 Bft) W-NW 300 0 min 7,5 C 11,6 C
05.09.2012 04:59 11,5 C 76 % 1019,7 hPa 0,0 l/m 0,0 km/h (0 Bft) W-NW 300 0 min 7,4 C 11,5 C
05.09.2012 05:04 11,4 C 76 % 1019,7 hPa 0,0 l/m 0,0 km/h (0 Bft) W-NW 300 0 min 7,3 C 11,4 C
05.09.2012 05:09 11,2 C 75 % 1019,7 hPa 0,0 l/m 0,0 km/h (0 Bft) W-NW 300 0 min 6,9 C 11,2 C
05.09.2012 05:14 11,2 C 75 % 1019,7 hPa 0,0 l/m 0,0 km/h (0 Bft) W-NW 300 0 min 6,9 C 11,2 C
05.09.2012 05:19 11,0 C 75 % 1019,7 hPa 0,0 l/m 0,0 km/h (0 Bft) W-NW 300 0 min 6,7 C 11,0 C
05.09.2012 05:24 11,0 C 75 % 1019,7 hPa 0,0 l/m 0,0 km/h (0 Bft) W-NW 300 0 min 6,7 C 11,0 C
05.09.2012 05:29 11,1 C 76 % 1019,7 hPa 0,0 l/m 0,0 km/h (0 Bft) NW 305 0 min 7,0 C 11,1 C
05.09.2012 05:34 11,1 C 76 % 1019,7 hPa 0,0 l/m 0,0 km/h (0 Bft) NW 305 0 min 7,0 C 11,1 C
05.09.2012 05:39 11,1 C 76 % 1019,7 hPa 0,0 l/m 0,0 km/h (0 Bft) NW 305 0 min 7,0 C 11,1 C
05.09.2012 05:44 11,1 C 76 % 1019,7 hPa 0,0 l/m 0,0 km/h (0 Bft) NW 305 0 min 7,0 C 11,1 C
05.09.2012 05:49 11,1 C 76 % 1019,7 hPa 0,0 l/m 0,0 km/h (0 Bft) NW 305 0 min 7,0 C 11,1 C
05.09.2012 05:54 11,2 C 76 % 1019,7 hPa 0,0 l/m 0,0 km/h (0 Bft) NW 305 0 min 7,1 C 11,2 C
05.09.2012 05:59 11,2 C 76 % 1019,7 hPa 0,0 l/m 0,0 km/h (0 Bft) NW 305 0 min 7,1 C 11,2 C
05.09.2012 06:04 11,2 C 76 % 1019,7 hPa 0,0 l/m 0,0 km/h (0 Bft) NW 305 0 min 7,1 C 11,2 C
05.09.2012 06:09 11,2 C 76 % 1019,7 hPa 0,0 l/m 0,0 km/h (0 Bft) NW 305 0 min 7,1 C 11,2 C
05.09.2012 06:14 11,2 C 76 % 1019,7 hPa 0,0 l/m 0,0 km/h (0 Bft) NW 305 0 min 7,1 C 11,2 C
05.09.2012 06:19 11,2 C 76 % 1019,7 hPa 0,0 l/m 0,0 km/h (0 Bft) W-NW 300 0 min 7,1 C 11,2 C
05.09.2012 06:24 11,3 C 76 % 1019,7 hPa 0,0 l/m 0,0 km/h (0 Bft) W-NW 300 0 min 7,2 C 11,3 C
05.09.2012 06:29 11,2 C 75 % 1019,7 hPa 0,0 l/m 0,0 km/h (0 Bft) W-NW 300 0 min 6,9 C 11,2 C
05.09.2012 06:34 11,1 C 75 % 1019,7 hPa 0,0 l/m 0,0 km/h (0 Bft) W-NW 300 0 min 6,8 C 11,1 C
05.09.2012 06:39 11,1 C 75 % 1019,7 hPa 0,0 l/m 0,0 km/h (0 Bft) W-NW 300 0 min 6,8 C 11,1 C
05.09.2012 06:44 11,1 C 75 % 1019,7 hPa 0,0 l/m 0,0 km/h (0 Bft) W-NW 300 0 min 6,8 C 11,1 C
05.09.2012 06:48 11,2 C 76 % 1019,7 hPa 0,0 l/m 0,0 km/h (0 Bft) W-NW 300 0 min 7,1 C 11,2 C
05.09.2012 06:53 11,2 C 76 % 1019,7 hPa 0,0 l/m 0,0 km/h (0 Bft) W-NW 300 0 min 7,1 C 11,2 C
05.09.2012 06:58 11,1 C 76 % 1019,7 hPa 0,0 l/m 0,0 km/h (0 Bft) W-NW 300 0 min 7,0 C 11,1 C
05.09.2012 07:03 11,1 C 76 % 1019,7 hPa 0,0 l/m 0,0 km/h (0 Bft) W-NW 300 0 min 7,0 C 11,1 C
05.09.2012 07:08 11,2 C 76 % 1019,7 hPa 0,0 l/m 0,0 km/h (0 Bft) W-NW 300 0 min 7,1 C 11,2 C
05.09.2012 07:13 11,3 C 76 % 1019,7 hPa 0,0 l/m 0,0 km/h (0 Bft) W-NW 300 0 min 7,2 C 11,3 C
05.09.2012 07:18 11,4 C 76 % 1019,7 hPa 0,0 l/m 0,0 km/h (0 Bft) W-NW 300 0 min 7,3 C 11,4 C
05.09.2012 07:23 11,5 C 76 % 1019,7 hPa 0,0 l/m 0,0 km/h (0 Bft) W-NW 300 0 min 7,4 C 11,5 C
05.09.2012 07:28 11,5 C 76 % 1019,7 hPa 0,0 l/m 0,0 km/h (0 Bft) W-NW 300 0 min 7,4 C 11,5 C
05.09.2012 07:33 11,6 C 76 % 1019,7 hPa 0,0 l/m 0,0 km/h (0 Bft) W-NW 300 0 min 7,5 C 11,6 C
05.09.2012 07:38 11,8 C 76 % 1019,7 hPa 0,0 l/m 0,0 km/h (0 Bft) W-NW 300 0 min 7,7 C 11,8 C
05.09.2012 07:44 11,9 C 76 % 1019,7 hPa 0,0 l/m 0,0 km/h (0 Bft) W-NW 300 0 min 7,8 C 11,9 C
05.09.2012 07:49 12,0 C 75 % 1019,7 hPa 0,0 l/m 0,0 km/h (0 Bft) W-NW 300 0 min 7,7 C 12,0 C
05.09.2012 07:54 12,1 C 75 % 1019,7 hPa 0,0 l/m 0,0 km/h (0 Bft) W-NW 300 0 min 7,8 C 12,1 C
05.09.2012 07:59 12,2 C 75 % 1019,7 hPa 0,0 l/m 0,0 km/h (0 Bft) W-NW 300 0 min 7,9 C 12,2 C
05.09.2012 08:04 12,3 C 76 % 1019,7 hPa 0,0 l/m 0,0 km/h (0 Bft) W-NW 300 0 min 8,2 C 12,3 C
05.09.2012 08:09 12,5 C 76 % 1019,7 hPa 0,0 l/m 0,0 km/h (0 Bft) W-NW 300 0 min 8,4 C 12,5 C
05.09.2012 08:14 12,6 C 77 % 1019,7 hPa 0,0 l/m 0,0 km/h (0 Bft) NW 305 0 min 8,7 C 12,6 C
05.09.2012 08:19 12,7 C 77 % 1019,7 hPa 0,0 l/m 0,0 km/h (0 Bft) W-NW 300 0 min 8,8 C 12,7 C
05.09.2012 08:24 13,1 C 77 % 1019,7 hPa 0,0 l/m 0,0 km/h (0 Bft) W-NW 290 0 min 9,2 C 13,1 C
05.09.2012 08:29 13,2 C 77 % 1019,7 hPa 0,0 l/m 0,0 km/h (0 Bft) W-NW 295 0 min 9,3 C 13,2 C
05.09.2012 08:34 13,4 C 77 % 1020,7 hPa 0,0 l/m 0,0 km/h (0 Bft) W-NW 295 0 min 9,5 C 13,4 C
05.09.2012 08:39 13,6 C 77 % 1020,7 hPa 0,0 l/m 0,0 km/h (0 Bft) W-NW 295 0 min 9,6 C 13,6 C
05.09.2012 08:44 13,7 C 78 % 1020,7 hPa 0,0 l/m 1,9 km/h (1 Bft) NW 305 0 min 9,9 C 13,7 C
05.09.2012 08:49 13,8 C 78 % 1020,7 hPa 0,0 l/m 6,7 km/h (2 Bft) W 270 0 min 10,0 C 13,6 C
05.09.2012 08:54 14,0 C 77 % 1020,7 hPa 0,0 l/m 6,2 km/h (2 Bft) W-NW 285 0 min 10,0 C 14,0 C
05.09.2012 08:59 14,1 C 78 % 1020,7 hPa 0,0 l/m 6,0 km/h (2 Bft) W 265 0 min 10,3 C 14,1 C
05.09.2012 09:04 14,2 C 78 % 1020,7 hPa 0,0 l/m 0,8 km/h (0 Bft) W-SW 255 0 min 10,4 C 14,2 C
05.09.2012 09:09 14,4 C 78 % 1020,7 hPa 0,0 l/m 0,7 km/h (0 Bft) SW 235 0 min 10,6 C 14,4 C
05.09.2012 09:14 14,5 C 78 % 1020,7 hPa 0,0 l/m 4,6 km/h (1 Bft) W-SW 240 0 min 10,7 C 14,5 C
05.09.2012 09:19 14,5 C 78 % 1020,7 hPa 0,0 l/m 5,5 km/h (1 Bft) W 275 0 min 10,7 C 14,5 C
05.09.2012 09:24 14,7 C 78 % 1020,7 hPa 0,0 l/m 0,0 km/h (0 Bft) W 270 0 min 10,9 C 14,7 C
05.09.2012 09:29 14,9 C 78 % 1020,7 hPa 0,0 l/m 0,4 km/h (0 Bft) W 260 0 min 11,1 C 14,9 C
05.09.2012 09:34 15,3 C 77 % 1020,7 hPa 0,0 l/m 4,2 km/h (1 Bft) W 260 0 min 11,3 C 15,3 C
05.09.2012 09:39 15,5 C 77 % 1020,7 hPa 0,0 l/m 0,9 km/h (0 Bft) W 260 0 min 11,5 C 15,5 C
05.09.2012 09:44 15,8 C 76 % 1020,7 hPa 0,0 l/m 0,9 km/h (0 Bft) W 265 0 min 11,6 C 15,8 C
05.09.2012 09:49 16,0 C 75 % 1020,7 hPa 0,0 l/m 0,0 km/h (0 Bft) W-SW 250 0 min 11,6 C 16,0 C
05.09.2012 09:54 16,1 C 75 % 1020,7 hPa 0,0 l/m 0,0 km/h (0 Bft) W-SW 250 0 min 11,7 C 16,1 C
05.09.2012 09:59 16,3 C 75 % 1020,7 hPa 0,0 l/m 0,0 km/h (0 Bft) W-SW 250 0 min 11,9 C 16,3 C
05.09.2012 10:04 16,4 C 74 % 1020,7 hPa 0,0 l/m 0,6 km/h (0 Bft) W-SW 255 0 min 11,8 C 16,4 C
05.09.2012 10:09 16,6 C 74 % 1020,7 hPa 0,0 l/m 0,3 km/h (0 Bft) W-SW 250 0 min 11,9 C 16,6 C
05.09.2012 10:14 16,7 C 74 % 1020,7 hPa 0,0 l/m 3,6 km/h (1 Bft) W-SW 250 0 min 12,0 C 16,7 C
05.09.2012 10:19 16,9 C 74 % 1020,7 hPa 0,0 l/m 3,4 km/h (1 Bft) W-SW 245 0 min 12,2 C 16,9 C
05.09.2012 10:24 16,9 C 74 % 1020,7 hPa 0,0 l/m 4,5 km/h (1 Bft) W-SW 240 0 min 12,2 C 16,9 C
05.09.2012 10:29 17,2 C 73 % 1020,7 hPa 0,0 l/m 4,5 km/h (1 Bft) W-SW 245 0 min 12,3 C 17,2 C
05.09.2012 10:34 17,5 C 73 % 1020,7 hPa 0,0 l/m 4,3 km/h (1 Bft) SW 235 0 min 12,6 C 17,5 C
05.09.2012 10:39 17,5 C 72 % 1020,7 hPa 0,0 l/m 4,4 km/h (1 Bft) W-SW 240 0 min 12,4 C 17,5 C
05.09.2012 10:44 17,6 C 72 % 1020,7 hPa 0,0 l/m 6,9 km/h (2 Bft) W-SW 255 0 min 12,5 C 17,4 C
05.09.2012 10:49 17,6 C 72 % 1020,7 hPa 0,0 l/m 7,0 km/h (2 Bft) W-SW 250 0 min 12,5 C 17,3 C
05.09.2012 10:54 17,7 C 72 % 1020,7 hPa 0,0 l/m 0,0 km/h (0 Bft) SW 235 0 min 12,6 C 17,7 C
05.09.2012 10:59 17,7 C 72 % 1020,7 hPa 0,0 l/m 0,0 km/h (0 Bft) W-SW 245 0 min 12,6 C 17,7 C
05.09.2012 11:04 17,8 C 72 % 1020,7 hPa 0,0 l/m 5,7 km/h (1 Bft) W-SW 245 0 min 12,7 C 17,8 C
05.09.2012 11:09 18,0 C 71 % 1020,7 hPa 0,0 l/m 4,7 km/h (1 Bft) W-SW 255 0 min 12,7 C 18,0 C
05.09.2012 11:14 18,1 C 71 % 1020,7 hPa 0,0 l/m 5,2 km/h (1 Bft) W-SW 250 0 min 12,8 C 18,1 C
05.09.2012 11:19 18,5 C 71 % 1020,7 hPa 0,0 l/m 0,6 km/h (0 Bft) SW 235 0 min 13,1 C 18,5 C
05.09.2012 11:24 18,7 C 69 % 1020,7 hPa 0,0 l/m 6,3 km/h (2 Bft) W-SW 250 0 min 12,9 C 18,7 C
05.09.2012 11:29 18,7 C 69 % 1020,7 hPa 0,0 l/m 6,3 km/h (2 Bft) W-SW 255 0 min 12,9 C 18,7 C
05.09.2012 11:34 18,9 C 69 % 1020,7 hPa 0,0 l/m 6,5 km/h (2 Bft) W 270 0 min 13,1 C 18,9 C
05.09.2012 11:39 19,1 C 68 % 1020,7 hPa 0,0 l/m 1,2 km/h (1 Bft) W 260 0 min 13,1 C 19,1 C
05.09.2012 11:44 19,4 C 67 % 1020,7 hPa 0,0 l/m 7,9 km/h (2 Bft) W-SW 240 0 min 13,1 C 18,8 C
05.09.2012 11:49 19,5 C 67 % 1020,7 hPa 0,0 l/m 5,9 km/h (2 Bft) W 265 0 min 13,2 C 19,5 C
05.09.2012 11:54 19,8 C 67 % 1020,7 hPa 0,0 l/m 3,1 km/h (1 Bft) SW 220 0 min 13,5 C 19,8 C
05.09.2012 11:59 20,0 C 66 % 1020,7 hPa 0,0 l/m 0,0 km/h (0 Bft) SW 215 0 min 13,4 C 20,0 C
05.09.2012 12:04 20,5 C 66 % 1020,7 hPa 0,0 l/m 0,8 km/h (0 Bft) SW 220 0 min 13,9 C 20,5 C
05.09.2012 12:09 20,8 C 66 % 1020,7 hPa 0,0 l/m 6,5 km/h (2 Bft) SW 230 0 min 14,2 C 20,8 C
05.09.2012 12:14 21,6 C 65 % 1020,7 hPa 0,0 l/m 0,7 km/h (0 Bft) SW 225 0 min 14,7 C 21,6 C
05.09.2012 12:19 22,0 C 64 % 1020,7 hPa 0,0 l/m 0,3 km/h (0 Bft) SW 215 0 min 14,9 C 22,0 C
05.09.2012 12:24 22,7 C 64 % 1020,7 hPa 0,0 l/m 0,1 km/h (0 Bft) O-NO 70 0 min 15,5 C 22,7 C
05.09.2012 12:29 22,6 C 61 % 1020,7 hPa 0,0 l/m 0,1 km/h (0 Bft) N-NW 345 0 min 14,7 C 22,6 C
05.09.2012 12:34 22,1 C 60 % 1020,7 hPa 0,0 l/m 8,7 km/h (2 Bft) W 280 0 min 14,0 C 21,3 C
05.09.2012 12:39 22,0 C 60 % 1020,7 hPa 0,0 l/m 0,3 km/h (0 Bft) W-NW 295 0 min 13,9 C 22,0 C
05.09.2012 12:44 22,0 C 60 % 1020,7 hPa 0,0 l/m 0,0 km/h (0 Bft) NW 315 0 min 13,9 C 22,0 C
05.09.2012 12:49 22,0 C 59 % 1020,7 hPa 0,0 l/m 9,8 km/h (2 Bft) NW 310 0 min 13,6 C 20,9 C
05.09.2012 12:54 22,0 C 60 % 1020,7 hPa 0,0 l/m 0,0 km/h (0 Bft) W-NW 290 0 min 13,9 C 22,0 C
05.09.2012 12:59 21,8 C 60 % 1020,7 hPa 0,0 l/m 0,0 km/h (0 Bft) NW 305 0 min 13,7 C 21,8 C
05.09.2012 13:04 21,6 C 60 % 1020,7 hPa 0,0 l/m 1,0 km/h (0 Bft) W-NW 295 0 min 13,5 C 21,6 C
05.09.2012 13:09 21,2 C 60 % 1020,7 hPa 0,0 l/m 0,0 km/h (0 Bft) N-NW 345 0 min 13,1 C 21,2 C
05.09.2012 13:14 20,4 C 61 % 1020,7 hPa 0,0 l/m 11,0 km/h (2 Bft) NW 305 0 min 12,6 C 18,8 C
05.09.2012 13:19 20,2 C 62 % 1020,7 hPa 0,0 l/m 6,7 km/h (2 Bft) NW 305 0 min 12,7 C 20,1 C
05.09.2012 13:23 20,0 C 62 % 1020,7 hPa 0,0 l/m 10,6 km/h (2 Bft) N-NW 340 0 min 12,5 C 18,4 C
05.09.2012 13:28 20,0 C 63 % 1020,7 hPa 0,0 l/m 10,8 km/h (2 Bft) W-NW 290 0 min 12,7 C 18,4 C
05.09.2012 13:33 20,2 C 63 % 1020,7 hPa 0,0 l/m 9,9 km/h (2 Bft) NW 315 0 min 12,9 C 18,9 C
05.09.2012 13:38 19,9 C 64 % 1020,7 hPa 0,0 l/m 0,7 km/h (0 Bft) N-NW 330 0 min 12,9 C 19,9 C
05.09.2012 13:43 19,7 C 64 % 1020,7 hPa 0,0 l/m 14,5 km/h (3 Bft) N-NW 335 0 min 12,7 C 17,0 C
05.09.2012 13:48 19,5 C 64 % 1020,7 hPa 0,0 l/m 8,5 km/h (2 Bft) W-NW 290 0 min 12,5 C 18,6 C
05.09.2012 13:53 19,5 C 64 % 1020,7 hPa 0,0 l/m 11,5 km/h (2 Bft) N-NW 330 0 min 12,5 C 17,6 C
05.09.2012 13:58 19,4 C 64 % 1020,7 hPa 0,0 l/m 11,5 km/h (2 Bft) NW 310 0 min 12,4 C 17,5 C
05.09.2012 14:03 19,5 C 65 % 1020,7 hPa 0,0 l/m 13,6 km/h (3 Bft) N-NW 340 0 min 12,7 C 17,0 C
05.09.2012 14:08 19,5 C 64 % 1020,7 hPa 0,0 l/m 9,4 km/h (2 Bft) NW 305 0 min 12,5 C 18,3 C
05.09.2012 14:14 19,5 C 64 % 1020,7 hPa 0,0 l/m 0,0 km/h (0 Bft) W 280 0 min 12,5 C 19,5 C
05.09.2012 14:19 19,3 C 64 % 1020,7 hPa 0,0 l/m 0,0 km/h (0 Bft) W 280 0 min 12,3 C 19,3 C
05.09.2012 14:24 19,1 C 64 % 1020,7 hPa 0,0 l/m 0,0 km/h (0 Bft) W-NW 285 0 min 12,1 C 19,1 C
05.09.2012 14:29 18,9 C 65 % 1020,7 hPa 0,0 l/m 0,0 km/h (0 Bft) NW 325 0 min 12,2 C 18,9 C
05.09.2012 14:34 18,7 C 65 % 1020,7 hPa 0,0 l/m 0,0 km/h (0 Bft) N-NW 345 0 min 12,0 C 18,7 C
05.09.2012 14:39 18,6 C 65 % 1020,7 hPa 0,0 l/m 0,0 km/h (0 Bft) N-NW 345 0 min 11,9 C 18,6 C
05.09.2012 14:44 18,7 C 65 % 1020,7 hPa 0,0 l/m 0,0 km/h (0 Bft) NW 325 0 min 12,0 C 18,7 C
05.09.2012 14:49 18,9 C 65 % 1020,7 hPa 0,0 l/m 0,0 km/h (0 Bft) NW 315 0 min 12,2 C 18,9 C
05.09.2012 14:54 19,4 C 65 % 1020,7 hPa 0,0 l/m 0,0 km/h (0 Bft) NW 315 0 min 12,6 C 19,4 C
05.09.2012 14:59 19,6 C 64 % 1020,7 hPa 0,0 l/m 1,0 km/h (0 Bft) W-NW 295 0 min 12,6 C 19,6 C
05.09.2012 15:04 19,9 C 64 % 1020,7 hPa 0,0 l/m 0,1 km/h (0 Bft) W 280 0 min 12,9 C 19,9 C
05.09.2012 15:09 20,8 C 64 % 1020,7 hPa 0,0 l/m 0,0 km/h (0 Bft) W 275 0 min 13,7 C 20,8 C
05.09.2012 15:14 21,1 C 62 % 1020,7 hPa 0,0 l/m 6,0 km/h (2 Bft) W-NW 285 0 min 13,5 C 21,1 C
05.09.2012 15:19 21,4 C 61 % 1020,7 hPa 0,0 l/m 8,9 km/h (2 Bft) W 280 0 min 13,6 C 20,5 C
05.09.2012 15:24 22,2 C 58 % 1020,7 hPa 0,0 l/m 17,8 km/h (3 Bft) N-NW 345 0 min 13,5 C 19,4 C
05.09.2012 15:29 22,6 C 57 % 1020,7 hPa 0,0 l/m 1,0 km/h (0 Bft) W 275 0 min 13,6 C 22,6 C
05.09.2012 15:34 23,0 C 55 % 1020,7 hPa 0,0 l/m 9,7 km/h (2 Bft) N-NW 335 0 min 13,5 C 22,0 C
05.09.2012 15:39 22,5 C 55 % 1020,7 hPa 0,0 l/m 1,0 km/h (0 Bft) W-NW 295 0 min 13,0 C 22,5 C
05.09.2012 15:44 21,8 C 57 % 1020,7 hPa 0,0 l/m 0,3 km/h (0 Bft) NW 310 0 min 12,9 C 21,8 C
05.09.2012 15:49 20,6 C 57 % 1020,7 hPa 0,0 l/m 14,8 km/h (3 Bft) N-NW 340 0 min 11,8 C 18,0 C
05.09.2012 15:54 20,2 C 58 % 1020,7 hPa 0,0 l/m 1,5 km/h (1 Bft) N-NW 335 0 min 11,7 C 20,2 C
05.09.2012 15:59 19,5 C 59 % 1020,7 hPa 0,0 l/m 0,1 km/h (0 Bft) N-NW 340 0 min 11,3 C 19,5 C
05.09.2012 16:04 19,3 C 60 % 1020,7 hPa 0,0 l/m 0,0 km/h (0 Bft) N-NW 330 0 min 11,3 C 19,3 C
05.09.2012 16:09 19,1 C 60 % 1020,7 hPa 0,0 l/m 0,1 km/h (0 Bft) NW 310 0 min 11,1 C 19,1 C
05.09.2012 16:14 19,0 C 61 % 1020,7 hPa 0,0 l/m 0,0 km/h (0 Bft) N-NW 330 0 min 11,3 C 19,0 C
05.09.2012 16:19 19,0 C 61 % 1020,7 hPa 0,0 l/m 0,0 km/h (0 Bft) NW 315 0 min 11,3 C 19,0 C
05.09.2012 16:24 19,1 C 61 % 1020,7 hPa 0,0 l/m 0,0 km/h (0 Bft) NW 320 0 min 11,4 C 19,1 C
05.09.2012 16:29 19,1 C 61 % 1020,7 hPa 0,0 l/m 0,7 km/h (0 Bft) W-NW 285 0 min 11,4 C 19,1 C
05.09.2012 16:34 19,2 C 61 % 1020,7 hPa 0,0 l/m 0,0 km/h (0 Bft) W-NW 290 0 min 11,5 C 19,2 C
05.09.2012 16:39 19,3 C 61 % 1020,7 hPa 0,0 l/m 0,0 km/h (0 Bft) W-NW 295 0 min 11,6 C 19,3 C
05.09.2012 16:44 19,3 C 61 % 1020,7 hPa 0,0 l/m 0,0 km/h (0 Bft) W-NW 295 0 min 11,6 C 19,3 C
05.09.2012 16:49 19,3 C 61 % 1020,7 hPa 0,0 l/m 0,0 km/h (0 Bft) W 275 0 min 11,6 C 19,3 C
05.09.2012 16:54 19,2 C 60 % 1020,7 hPa 0,0 l/m 0,0 km/h (0 Bft) W 280 0 min 11,2 C 19,2 C
05.09.2012 16:59 19,2 C 61 % 1020,7 hPa 0,0 l/m 0,0 km/h (0 Bft) S-SO 155 0 min 11,5 C 19,2 C
05.09.2012 17:04 19,3 C 61 % 1020,7 hPa 0,0 l/m 0,0 km/h (0 Bft) S-SO 160 0 min 11,6 C 19,3 C
05.09.2012 17:09 19,2 C 60 % 1020,7 hPa 0,0 l/m 0,0 km/h (0 Bft) S-SO 160 0 min 11,2 C 19,2 C
05.09.2012 17:14 19,2 C 61 % 1020,7 hPa 0,0 l/m 0,0 km/h (0 Bft) S-SO 150 0 min 11,5 C 19,2 C
05.09.2012 17:19 19,3 C 60 % 1020,7 hPa 0,0 l/m 0,0 km/h (0 Bft) S-SO 155 0 min 11,3 C 19,3 C
05.09.2012 17:24 19,4 C 60 % 1020,7 hPa 0,0 l/m 0,0 km/h (0 Bft) S-SO 160 0 min 11,4 C 19,4 C
05.09.2012 17:29 19,6 C 60 % 1020,7 hPa 0,0 l/m 0,0 km/h (0 Bft) S-SO 155 0 min 11,6 C 19,6 C
05.09.2012 17:34 19,8 C 60 % 1020,7 hPa 0,0 l/m 0,0 km/h (0 Bft) S-SO 160 0 min 11,8 C 19,8 C
05.09.2012 17:39 20,6 C 59 % 1020,7 hPa 0,0 l/m 0,0 km/h (0 Bft) W 270 0 min 12,3 C 20,6 C
05.09.2012 17:44 21,2 C 58 % 1020,7 hPa 0,0 l/m 0,0 km/h (0 Bft) W-NW 290 0 min 12,6 C 21,2 C
05.09.2012 17:49 22,2 C 55 % 1020,7 hPa 0,0 l/m 0,0 km/h (0 Bft) W-NW 290 0 min 12,7 C 22,2 C
05.09.2012 17:54 22,4 C 54 % 1020,7 hPa 0,0 l/m 0,1 km/h (0 Bft) W 270 0 min 12,6 C 22,4 C
05.09.2012 17:59 22,3 C 51 % 1020,7 hPa 0,0 l/m 1,0 km/h (0 Bft) NW 305 0 min 11,7 C 22,3 C
05.09.2012 18:04 22,3 C 51 % 1020,7 hPa 0,0 l/m 0,8 km/h (0 Bft) NW 305 0 min 11,7 C 22,3 C
05.09.2012 18:09 22,8 C 51 % 1020,7 hPa 0,0 l/m 0,3 km/h (0 Bft) W-SW 255 0 min 12,1 C 22,8 C
05.09.2012 18:14 22,5 C 49 % 1020,7 hPa 0,0 l/m 0,3 km/h (0 Bft) NW 315 0 min 11,2 C 22,5 C
05.09.2012 18:19 22,0 C 50 % 1020,7 hPa 0,0 l/m 0,0 km/h (0 Bft) NW 310 0 min 11,1 C 22,0 C
05.09.2012 18:24 21,8 C 51 % 1020,7 hPa 0,0 l/m 0,0 km/h (0 Bft) W-NW 300 0 min 11,2 C 21,8 C
05.09.2012 18:29 21,2 C 51 % 1020,7 hPa 0,0 l/m 0,6 km/h (0 Bft) O-NO 70 0 min 10,7 C 21,2 C
05.09.2012 18:33 20,8 C 52 % 1020,7 hPa 0,0 l/m 0,0 km/h (0 Bft) W-NW 290 0 min 10,6 C 20,8 C
05.09.2012 18:39 20,6 C 52 % 1020,7 hPa 0,0 l/m 0,0 km/h (0 Bft) W-NW 285 0 min 10,4 C 20,6 C
05.09.2012 18:44 20,2 C 52 % 1020,7 hPa 0,0 l/m 0,1 km/h (0 Bft) W-NW 285 0 min 10,0 C 20,2 C
05.09.2012 18:49 20,0 C 52 % 1020,7 hPa 0,0 l/m 0,0 km/h (0 Bft) NW 320 0 min 9,8 C 20,0 C
05.09.2012 18:54 19,8 C 53 % 1020,7 hPa 0,0 l/m 0,0 km/h (0 Bft) NW 315 0 min 9,9 C 19,8 C
05.09.2012 18:59 19,6 C 53 % 1020,7 hPa 0,0 l/m 0,0 km/h (0 Bft) W-NW 285 0 min 9,8 C 19,6 C
05.09.2012 19:04 19,1 C 53 % 1021,7 hPa 0,0 l/m 0,0 km/h (0 Bft) W-NW 285 0 min 9,3 C 19,1 C
05.09.2012 19:08 18,7 C 53 % 1021,7 hPa 0,0 l/m 0,0 km/h (0 Bft) W-NW 295 0 min 8,9 C 18,7 C
05.09.2012 19:14 18,3 C 54 % 1021,7 hPa 0,0 l/m 0,0 km/h (0 Bft) W-NW 295 0 min 8,8 C 18,3 C
05.09.2012 19:19 17,8 C 54 % 1021,7 hPa 0,0 l/m 1,0 km/h (0 Bft) NW 325 0 min 8,4 C 17,8 C
05.09.2012 19:24 17,5 C 54 % 1021,7 hPa 0,0 l/m 0,3 km/h (0 Bft) NW 310 0 min 8,1 C 17,5 C
05.09.2012 19:29 17,3 C 54 % 1021,7 hPa 0,0 l/m 0,0 km/h (0 Bft) NW 305 0 min 7,9 C 17,3 C
05.09.2012 19:34 17,1 C 54 % 1021,7 hPa 0,0 l/m 0,0 km/h (0 Bft) NW 305 0 min 7,7 C 17,1 C
05.09.2012 19:39 16,5 C 55 % 1021,7 hPa 0,0 l/m 0,0 km/h (0 Bft) W-NW 285 0 min 7,4 C 16,5 C
05.09.2012 19:43 16,4 C 55 % 1021,7 hPa 0,0 l/m 0,0 km/h (0 Bft) W-NW 285 0 min 7,3 C 16,4 C
05.09.2012 19:49 16,1 C 55 % 1021,7 hPa 0,0 l/m 0,0 km/h (0 Bft) W-NW 285 0 min 7,1 C 16,1 C
05.09.2012 19:54 15,8 C 56 % 1021,7 hPa 0,0 l/m 0,0 km/h (0 Bft) W-NW 295 0 min 7,0 C 15,8 C
05.09.2012 19:59 15,7 C 56 % 1021,7 hPa 0,0 l/m 0,1 km/h (0 Bft) W-NW 295 0 min 6,9 C 15,7 C
05.09.2012 20:04 15,5 C 57 % 1021,7 hPa 0,0 l/m 0,0 km/h (0 Bft) W 270 0 min 7,0 C 15,5 C
05.09.2012 20:09 15,2 C 57 % 1021,7 hPa 0,0 l/m 0,0 km/h (0 Bft) W 270 0 min 6,7 C 15,2 C
05.09.2012 20:14 15,0 C 57 % 1021,7 hPa 0,0 l/m 0,0 km/h (0 Bft) W 270 0 min 6,6 C 15,0 C
05.09.2012 20:18 14,8 C 58 % 1022,7 hPa 0,0 l/m 0,0 km/h (0 Bft) W 270 0 min 6,6 C 14,8 C
05.09.2012 20:24 14,6 C 58 % 1022,7 hPa 0,0 l/m 0,0 km/h (0 Bft) W 265 0 min 6,4 C 14,6 C
05.09.2012 20:29 14,5 C 58 % 1022,7 hPa 0,0 l/m 0,0 km/h (0 Bft) W 265 0 min 6,3 C 14,5 C
05.09.2012 20:34 14,4 C 58 % 1022,7 hPa 0,0 l/m 0,0 km/h (0 Bft) W 265 0 min 6,2 C 14,4 C
05.09.2012 20:39 14,3 C 59 % 1022,7 hPa 0,0 l/m 0,0 km/h (0 Bft) W 265 0 min 6,4 C 14,3 C
05.09.2012 20:44 14,1 C 59 % 1022,7 hPa 0,0 l/m 0,0 km/h (0 Bft) W 280 0 min 6,2 C 14,1 C
05.09.2012 20:49 14,1 C 59 % 1022,7 hPa 0,0 l/m 0,0 km/h (0 Bft) W 280 0 min 6,2 C 14,1 C
05.09.2012 20:54 14,1 C 59 % 1022,7 hPa 0,0 l/m 0,0 km/h (0 Bft) W 280 0 min 6,2 C 14,1 C
05.09.2012 20:59 14,1 C 59 % 1022,7 hPa 0,0 l/m 0,0 km/h (0 Bft) W 275 0 min 6,2 C 14,1 C
05.09.2012 21:04 14,0 C 59 % 1022,7 hPa 0,0 l/m 0,0 km/h (0 Bft) W 280 0 min 6,1 C 14,0 C
05.09.2012 21:09 13,8 C 60 % 1022,7 hPa 0,0 l/m 0,0 km/h (0 Bft) NW 305 0 min 6,2 C 13,8 C
05.09.2012 21:14 13,7 C 60 % 1022,7 hPa 0,0 l/m 0,0 km/h (0 Bft) NW 305 0 min 6,1 C 13,7 C
05.09.2012 21:19 13,2 C 60 % 1022,7 hPa 0,0 l/m 0,0 km/h (0 Bft) W-NW 300 0 min 5,6 C 13,2 C
05.09.2012 21:24 13,1 C 60 % 1022,7 hPa 0,0 l/m 0,0 km/h (0 Bft) NW 305 0 min 5,5 C 13,1 C
05.09.2012 21:29 12,8 C 61 % 1022,7 hPa 0,0 l/m 0,0 km/h (0 Bft) NW 305 0 min 5,5 C 12,8 C
05.09.2012 21:33 12,6 C 61 % 1022,7 hPa 0,0 l/m 0,0 km/h (0 Bft) NW 305 0 min 5,3 C 12,6 C
05.09.2012 21:38 12,5 C 61 % 1022,7 hPa 0,0 l/m 0,0 km/h (0 Bft) NW 305 0 min 5,2 C 12,5 C
05.09.2012 21:43 12,3 C 61 % 1022,7 hPa 0,0 l/m 0,0 km/h (0 Bft) NW 305 0 min 5,0 C 12,3 C
05.09.2012 21:48 12,1 C 61 % 1022,7 hPa 0,0 l/m 0,0 km/h (0 Bft) NW 305 0 min 4,8 C 12,1 C
05.09.2012 21:54 11,9 C 62 % 1022,7 hPa 0,0 l/m 0,0 km/h (0 Bft) NW 305 0 min 4,9 C 11,9 C
05.09.2012 21:59 11,9 C 63 % 1022,7 hPa 0,0 l/m 0,0 km/h (0 Bft) NW 305 0 min 5,1 C 11,9 C
05.09.2012 22:04 11,8 C 63 % 1022,7 hPa 0,0 l/m 0,0 km/h (0 Bft) NW 305 0 min 5,0 C 11,8 C
05.09.2012 22:09 11,7 C 63 % 1022,7 hPa 0,0 l/m 0,0 km/h (0 Bft) NW 305 0 min 4,9 C 11,7 C
05.09.2012 22:14 11,4 C 63 % 1023,7 hPa 0,0 l/m 0,0 km/h (0 Bft) NW 305 0 min 4,6 C 11,4 C
05.09.2012 22:19 11,3 C 63 % 1023,7 hPa 0,0 l/m 0,0 km/h (0 Bft) NW 305 0 min 4,5 C 11,3 C
05.09.2012 22:24 11,2 C 63 % 1023,7 hPa 0,0 l/m 0,0 km/h (0 Bft) NW 305 0 min 4,4 C 11,2 C
05.09.2012 22:29 11,1 C 63 % 1023,7 hPa 0,0 l/m 0,0 km/h (0 Bft) W-NW 300 0 min 4,3 C 11,1 C
05.09.2012 22:34 11,1 C 63 % 1023,7 hPa 0,0 l/m 0,0 km/h (0 Bft) W-NW 300 0 min 4,3 C 11,1 C
05.09.2012 22:39 10,9 C 64 % 1023,7 hPa 0,0 l/m 0,0 km/h (0 Bft) W-NW 300 0 min 4,4 C 10,9 C
05.09.2012 22:44 10,8 C 64 % 1023,7 hPa 0,0 l/m 0,0 km/h (0 Bft) W-NW 300 0 min 4,3 C 10,8 C
05.09.2012 22:49 10,6 C 64 % 1023,7 hPa 0,0 l/m 0,0 km/h (0 Bft) W-NW 300 0 min 4,1 C 10,6 C
05.09.2012 22:54 10,4 C 65 % 1023,7 hPa 0,0 l/m 0,0 km/h (0 Bft) W-NW 300 0 min 4,1 C 10,4 C
05.09.2012 22:59 10,4 C 65 % 1023,7 hPa 0,0 l/m 0,0 km/h (0 Bft) W-NW 300 0 min 4,1 C 10,4 C
05.09.2012 23:04 10,1 C 65 % 1023,7 hPa 0,0 l/m 0,0 km/h (0 Bft) W-NW 300 0 min 3,8 C 10,1 C
05.09.2012 23:09 10,0 C 65 % 1023,7 hPa 0,0 l/m 0,0 km/h (0 Bft) W-NW 300 0 min 3,7 C 10,0 C
05.09.2012 23:14 9,9 C 66 % 1023,7 hPa 0,0 l/m 0,0 km/h (0 Bft) W-NW 300 0 min 3,9 C 9,9 C
05.09.2012 23:19 9,8 C 66 % 1023,7 hPa 0,0 l/m 0,0 km/h (0 Bft) W-NW 300 0 min 3,8 C 9,8 C
05.09.2012 23:24 9,7 C 66 % 1023,7 hPa 0,0 l/m 0,0 km/h (0 Bft) NW 305 0 min 3,7 C 9,7 C
05.09.2012 23:29 9,7 C 66 % 1023,7 hPa 0,0 l/m 0,0 km/h (0 Bft) W-NW 300 0 min 3,7 C 9,7 C
05.09.2012 23:34 9,6 C 66 % 1023,7 hPa 0,0 l/m 0,0 km/h (0 Bft) W-NW 300 0 min 3,6 C 9,6 C
05.09.2012 23:39 9,4 C 67 % 1023,7 hPa 0,0 l/m 0,0 km/h (0 Bft) W-NW 300 0 min 3,6 C 9,4 C
05.09.2012 23:44 9,3 C 67 % 1023,7 hPa 0,0 l/m 0,0 km/h (0 Bft) NW 310 0 min 3,5 C 9,3 C
05.09.2012 23:49 9,3 C 67 % 1023,7 hPa 0,0 l/m 0,0 km/h (0 Bft) NW 305 0 min 3,5 C 9,3 C
05.09.2012 23:54 9,3 C 67 % 1023,7 hPa 0,0 l/m 0,0 km/h (0 Bft) NW 305 0 min 3,5 C 9,3 C
05.09.2012 23:59 9,2 C 67 % 1023,7 hPa 0,0 l/m 0,0 km/h (0 Bft) W-NW 300 0 min 3,4 C 9,2 C
_ Min-Zeit 00:04 18:14 03:24 - 00:04 - - - 23:59 23:59
Minimum _ 0,0 C 49 % 1019,7 hPa - 0,0 km/h (0 Bft) - - - 3,4 C 9,2 C
_ Max-Zeit 15:34 08:44 22:14 00:04 15:24 - - 00:04 12:24 18:09
Maximum _ 23,0 C 78 % 1023,7 hPa 0,0 l/m 17,8 km/h
N-NW (3 Bft)
- - 0 min 15,5 C 22,8 C
Durchschnitt _ 15,3 C 67 % 1020,9 hPa #0,0 l/m 1,2 km/h (1 Bft) W-SW - #0 min. 9,1 C 15,2 C